Time;durP1;ratioP1;P1;durP2;ratioP2;P2;SDS_P1;SDS_P2;PMS_P1;PMS_P2;Temp;Humidity;BMP_temperature;BMP_pressure;BME280_temperature;BME280_humidity;BME280_pressure;Samples;Min_cycle;Max_cycle;Signal;HPM_P1;HPM_P2
2022/10/27 00:00:07;;;;;;;14.10;5.10;;;12.50;99.90;;;;;;5048496;28;20496;-74
2022/10/27 00:02:33;;;;;;;13.90;5.13;;;12.50;99.90;;;;;;5048542;28;20233;-73
2022/10/27 00:04:58;;;;;;;18.27;6.17;;;12.40;99.90;;;;;;5048268;28;20428;-73
2022/10/27 00:07:24;;;;;;;10.77;5.13;;;12.50;99.90;;;;;;5048293;28;20215;-73
2022/10/27 00:09:49;;;;;;;13.33;6.30;;;12.40;99.90;;;;;;5030316;28;20652;-74
2022/10/27 00:12:15;;;;;;;15.17;5.67;;;12.40;99.90;;;;;;5030029;28;20286;-73
2022/10/27 00:14:41;;;;;;;11.80;5.73;;;12.40;99.90;;;;;;5030628;28;20615;-74
2022/10/27 00:17:06;;;;;;;12.30;5.43;;;12.40;99.90;;;;;;5048250;28;20547;-73
2022/10/27 00:19:32;;;;;;;10.80;5.97;;;12.40;99.90;;;;;;5048493;28;20544;-74
2022/10/27 00:21:58;;;;;;;15.43;5.80;;;12.30;99.90;;;;;;5030574;28;20187;-73
2022/10/27 00:24:23;;;;;;;17.17;6.00;;;12.30;99.90;;;;;;5030193;28;20246;-73
2022/10/27 00:26:49;;;;;;;15.80;6.27;;;12.40;99.90;;;;;;5030399;28;20186;-74
2022/10/27 00:29:14;;;;;;;13.43;6.50;;;12.30;99.90;;;;;;5030425;28;20671;-74
2022/10/27 00:31:40;;;;;;;15.13;6.60;;;12.20;99.90;;;;;;5052108;28;20213;-74
2022/10/27 00:34:05;;;;;;;26.97;6.40;;;12.10;99.90;;;;;;5034184;28;20207;-74
2022/10/27 00:36:31;;;;;;;15.50;6.77;;;12.00;99.90;;;;;;5052310;28;20608;-74
2022/10/27 00:38:58;;;;;;;16.00;6.30;;;11.90;99.90;;;;;;5034273;28;20187;-73
2022/10/27 00:41:35;;;;;;;13.57;6.30;;;11.90;99.90;;;;;;5052760;28;20422;-73
2022/10/27 00:44:22;;;;;;;13.37;5.73;;;11.90;99.90;;;;;;5034038;28;20441;-73
2022/10/27 00:46:48;;;;;;;20.07;6.60;;;12.00;99.90;;;;;;5051968;28;20455;-73
2022/10/27 00:49:19;;;;;;;14.17;5.60;;;12.00;99.90;;;;;;5051960;28;20504;-73
2022/10/27 00:51:57;;;;;;;21.60;6.53;;;12.00;99.90;;;;;;5034083;28;20295;-74
2022/10/27 00:54:26;;;;;;;9.90;5.60;;;12.00;99.90;;;;;;5052228;28;20437;-74
2022/10/27 00:56:53;;;;;;;9.17;5.13;;;11.90;99.90;;;;;;5052840;28;20409;-74
2022/10/27 00:59:19;;;;;;;18.63;6.60;;;11.90;99.90;;;;;;5052401;28;20456;-73
2022/10/27 01:01:46;;;;;;;12.67;5.93;;;11.90;99.90;;;;;;5051749;28;20421;-73
2022/10/27 01:04:14;;;;;;;13.13;5.00;;;11.90;99.90;;;;;;5033209;28;20494;-73
2022/10/27 01:06:40;;;;;;;11.80;5.50;;;11.90;99.90;;;;;;5051229;28;20504;-74
2022/10/27 01:09:06;;;;;;;15.50;5.93;;;11.80;99.90;;;;;;5051082;28;20979;-73
2022/10/27 01:11:31;;;;;;;20.17;6.77;;;11.70;99.90;;;;;;5051133;28;20182;-73
2022/10/27 01:13:57;;;;;;;18.73;7.30;;;11.60;99.90;;;;;;5050064;28;20965;-73
2022/10/27 01:16:49;;;;;;;11.53;5.70;;;11.60;99.90;;;;;;5032075;28;20186;-73
2022/10/27 01:19:35;;;;;;;13.43;5.70;;;11.60;99.90;;;;;;5044889;28;20433;-73
2022/10/27 01:22:28;;;;;;;15.43;5.90;;;11.70;99.90;;;;;;5049879;28;20417;-73
2022/10/27 01:25:15;;;;;;;17.53;6.27;;;11.70;99.90;;;;;;5049863;28;20417;-73
2022/10/27 01:28:17;;;;;;;14.47;6.37;;;11.60;99.90;;;;;;5050172;28;20461;-73
2022/10/27 01:31:06;;;;;;;16.10;5.57;;;11.60;99.90;;;;;;5050244;28;20413;-73
2022/10/27 01:33:56;;;;;;;16.90;6.00;;;11.60;99.90;;;;;;5049746;28;20433;-73
2022/10/27 01:36:36;;;;;;;14.27;6.20;;;11.60;99.90;;;;;;5049422;28;20920;-73
2022/10/27 01:39:10;;;;;;;15.93;6.20;;;11.50;99.90;;;;;;5049428;28;20423;-73
2022/10/27 01:41:44;;;;;;;16.53;6.27;;;11.50;99.90;;;;;;5049308;28;20416;-74
2022/10/27 01:44:17;;;;;;;27.70;6.10;;;11.40;99.90;;;;;;5049284;28;20436;-74
2022/10/27 01:46:43;;;;;;;24.30;7.23;;;11.40;99.90;;;;;;5049699;28;20451;-73
2022/10/27 01:49:09;;;;;;;21.30;6.23;;;11.50;99.90;;;;;;5049879;28;20496;-73
2022/10/27 01:51:34;;;;;;;11.50;5.23;;;11.40;99.90;;;;;;5049637;28;20837;-73
2022/10/27 01:54:01;;;;;;;17.40;5.40;;;11.40;99.90;;;;;;5031548;28;20225;-73
2022/10/27 01:57:01;;;;;;;15.90;6.00;;;11.50;99.90;;;;;;5049303;28;20171;-73
2022/10/27 01:59:39;;;;;;;17.63;6.97;;;11.50;99.90;;;;;;5049460;28;20416;-73
2022/10/27 02:02:20;;;;;;;10.77;6.10;;;11.50;99.90;;;;;;5049270;28;20415;-73
2022/10/27 02:05:04;;;;;;;11.53;6.17;;;11.50;99.90;;;;;;5049466;28;20559;-73
2022/10/27 02:07:48;;;;;;;14.10;6.20;;;11.40;99.90;;;;;;5049417;28;20500;-73
2022/10/27 02:10:21;;;;;;;19.47;7.30;;;11.40;99.90;;;;;;5049504;28;20467;-73
2022/10/27 02:12:47;;;;;;;22.07;5.93;;;11.40;99.90;;;;;;5009771;28;1140722;-73
2022/10/27 02:15:42;;;;;;;13.93;6.20;;;11.40;99.90;;;;;;5050529;28;20175;-73
2022/10/27 02:18:11;;;;;;;12.20;6.30;;;11.40;99.90;;;;;;5050571;28;20882;-73
2022/10/27 02:20:42;;;;;;;15.17;6.10;;;11.30;99.90;;;;;;5050476;28;20422;-73
2022/10/27 02:23:12;;;;;;;11.17;5.23;;;11.30;99.90;;;;;;5032031;28;20851;-73
2022/10/27 02:25:53;;;;;;;17.90;6.37;;;11.30;99.90;;;;;;5050062;28;20433;-74
2022/10/27 02:28:26;;;;;;;14.70;6.33;;;11.30;99.90;;;;;;5031966;28;20504;-73
2022/10/27 02:30:55;;;;;;;27.47;7.37;;;11.30;99.90;;;;;;5049796;28;20408;-73
2022/10/27 02:33:21;;;;;;;12.20;6.50;;;11.40;99.90;;;;;;5050311;28;20552;-73
2022/10/27 02:35:47;;;;;;;16.73;5.80;;;11.40;99.90;;;;;;5050186;28;20984;-73
2022/10/27 02:38:12;;;;;;;12.30;5.40;;;11.30;99.90;;;;;;5050186;28;20653;-73
2022/10/27 02:40:38;;;;;;;15.53;5.93;;;11.30;99.90;;;;;;5015730;28;20490;-73
2022/10/27 02:43:04;;;;;;;17.37;6.07;;;11.20;99.90;;;;;;5050043;28;20631;-73
2022/10/27 02:45:29;;;;;;;12.73;6.07;;;11.30;99.90;;;;;;5032663;28;20910;-73
2022/10/27 02:47:55;;;;;;;18.07;5.70;;;11.20;99.90;;;;;;5050815;28;20222;-73
2022/10/27 02:50:20;;;;;;;11.00;5.77;;;11.20;99.90;;;;;;5050820;28;20558;-73
2022/10/27 02:52:46;;;;;;;18.27;6.67;;;11.20;99.90;;;;;;5032589;28;20205;-73
2022/10/27 02:55:11;;;;;;;16.33;6.50;;;11.20;99.90;;;;;;5050808;28;20182;-74
2022/10/27 02:57:37;;;;;;;22.50;6.20;;;11.20;99.90;;;;;;5050687;28;20277;-75
2022/10/27 03:00:04;;;;;;;13.67;6.60;;;11.20;99.90;;;;;;5050460;28;20180;-74
2022/10/27 03:02:30;;;;;;;16.80;6.77;;;11.20;99.90;;;;;;5031976;28;20218;-73
2022/10/27 03:04:56;;;;;;;14.10;7.00;;;11.20;99.90;;;;;;5049757;28;20437;-73
2022/10/27 03:07:23;;;;;;;17.03;6.53;;;11.20;99.90;;;;;;5015382;28;20337;-73
2022/10/27 03:09:48;;;;;;;12.20;5.67;;;11.10;99.90;;;;;;5031515;28;20991;-74
2022/10/27 03:12:14;;;;;;;19.47;6.40;;;11.20;99.90;;;;;;5049261;28;20469;-74
2022/10/27 03:14:40;;;;;;;14.90;7.67;;;11.20;99.90;;;;;;5049548;28;20554;-73
2022/10/27 03:17:05;;;;;;;17.00;7.70;;;11.20;99.90;;;;;;5031914;28;20182;-74
2022/10/27 03:19:31;;;;;;;16.93;7.30;;;11.20;99.90;;;;;;5031367;28;20236;-74
2022/10/27 03:21:56;;;;;;;24.43;7.20;;;11.20;99.90;;;;;;5049203;28;20190;-74
2022/10/27 03:24:22;;;;;;;32.17;9.33;;;11.10;99.90;;;;;;5031273;28;20305;-74
2022/10/27 03:26:47;;;;;;;21.53;6.80;;;11.10;99.90;;;;;;5031177;28;20179;-74
2022/10/27 03:29:13;;;;;;;17.77;7.93;;;11.10;99.90;;;;;;5049022;28;20245;-74
2022/10/27 03:31:38;;;;;;;16.17;7.50;;;11.00;99.90;;;;;;5049034;28;20569;-74
2022/10/27 03:34:04;;;;;;;21.27;7.27;;;11.00;99.90;;;;;;5030977;28;20283;-74
2022/10/27 03:36:30;;;;;;;13.50;6.97;;;11.00;99.90;;;;;;5048862;28;20193;-73
2022/10/27 03:38:55;;;;;;;14.93;7.50;;;11.00;99.90;;;;;;5031082;28;20194;-74
2022/10/27 03:41:21;;;;;;;13.40;7.40;;;11.00;99.90;;;;;;5030957;28;20690;-74
2022/10/27 03:43:47;;;;;;;18.50;7.67;;;10.90;99.90;;;;;;5049084;28;20208;-74
2022/10/27 03:46:12;;;;;;;24.80;8.00;;;10.80;99.90;;;;;;5049236;28;20193;-73
2022/10/27 03:48:38;;;;;;;14.80;7.47;;;10.80;99.90;;;;;;5049071;28;20248;-73
2022/10/27 03:51:03;;;;;;;13.93;7.23;;;10.80;99.90;;;;;;5014825;28;20187;-73
2022/10/27 03:53:29;;;;;;;22.20;6.83;;;10.90;99.90;;;;;;5030983;28;20798;-74
2022/10/27 03:55:54;;;;;;;19.27;8.37;;;10.90;99.90;;;;;;5048943;28;20178;-74
2022/10/27 03:58:20;;;;;;;11.97;8.10;;;10.90;99.90;;;;;;5030980;28;20263;-73
2022/10/27 04:00:46;;;;;;;20.53;7.03;;;10.90;99.90;;;;;;5030828;28;20248;-73
2022/10/27 04:03:12;;;;;;;19.60;8.87;;;11.00;99.90;;;;;;5030911;28;20262;-73
2022/10/27 04:05:38;;;;;;;14.33;8.20;;;11.00;99.90;;;;;;5032779;28;20189;-73
2022/10/27 04:08:03;;;;;;;13.70;8.43;;;10.90;99.90;;;;;;5052668;28;20469;-73
2022/10/27 04:10:29;;;;;;;19.47;8.47;;;10.90;99.90;;;;;;5052842;28;20431;-73
2022/10/27 04:12:56;;;;;;;12.73;8.90;;;10.90;99.90;;;;;;5052695;28;20730;-73
2022/10/27 04:15:23;;;;;;;15.03;9.40;;;10.90;99.90;;;;;;5052758;28;20209;-74
2022/10/27 04:17:53;;;;;;;16.50;10.30;;;11.00;99.90;;;;;;5052685;28;20508;-73
2022/10/27 04:20:18;;;;;;;23.67;9.40;;;11.00;99.90;;;;;;5034279;28;20790;-74
2022/10/27 04:22:44;;;;;;;19.70;9.20;;;11.10;99.90;;;;;;5052288;28;20440;-73
2022/10/27 04:25:09;;;;;;;19.70;9.20;;;11.00;99.90;;;;;;5018091;28;20193;-73
2022/10/27 04:27:35;;;;;;;16.17;8.17;;;11.10;99.90;;;;;;5034332;28;20776;-73
2022/10/27 04:30:01;;;;;;;29.40;12.80;;;11.10;99.90;;;;;;5052433;28;20241;-74
2022/10/27 04:32:26;;;;;;;22.30;12.63;;;11.00;99.90;;;;;;5049960;28;20202;-73
2022/10/27 04:34:52;;;;;;;16.87;10.23;;;11.00;99.90;;;;;;5050957;28;20204;-73
2022/10/27 04:37:17;;;;;;;19.10;10.23;;;11.00;99.90;;;;;;5050826;28;20197;-73
2022/10/27 04:39:43;;;;;;;17.40;9.90;;;11.00;99.90;;;;;;5032773;28;20673;-73
2022/10/27 04:42:10;;;;;;;57.20;9.40;;;11.00;99.90;;;;;;5050896;28;20187;-73
2022/10/27 04:44:35;;;;;;;16.37;9.37;;;10.90;99.90;;;;;;5032751;28;20275;-73
2022/10/27 04:47:01;;;;;;;32.87;9.90;;;10.90;99.90;;;;;;5050967;28;20611;-73
2022/10/27 04:49:26;;;;;;;43.57;9.60;;;10.80;99.90;;;;;;5050946;28;20560;-73
2022/10/27 04:51:52;;;;;;;44.80;9.70;;;10.80;99.90;;;;;;5033065;28;20241;-73
2022/10/27 04:54:18;;;;;;;70.80;10.87;;;10.70;99.90;;;;;;5032927;28;20577;-73
2022/10/27 04:56:43;;;;;;;60.50;10.90;;;10.60;99.90;;;;;;5051051;28;20187;-73
2022/10/27 04:59:10;;;;;;;39.70;9.17;;;10.50;99.90;;;;;;5050918;28;20190;-74
2022/10/27 05:01:36;;;;;;;36.40;11.00;;;10.50;99.90;;;;;;5051207;28;20539;-73
2022/10/27 05:04:01;;;;;;;113.67;11.37;;;10.50;99.90;;;;;;5051145;28;20443;-74
2022/10/27 05:06:27;;;;;;;82.87;9.83;;;10.40;99.90;;;;;;5049345;28;20236;-73
2022/10/27 05:08:52;;;;;;;94.80;10.07;;;10.30;99.90;;;;;;5032479;28;20219;-73
2022/10/27 05:11:18;;;;;;;47.67;9.57;;;10.30;99.90;;;;;;5032895;28;20269;-73
2022/10/27 05:13:47;;;;;;;113.37;11.27;;;10.30;99.90;;;;;;5032578;28;20251;-74
2022/10/27 05:16:13;;;;;;;43.57;9.60;;;10.30;99.90;;;;;;5050502;28;20264;-73
2022/10/27 05:18:39;;;;;;;46.07;9.33;;;10.20;99.90;;;;;;5032828;28;20505;-74
2022/10/27 05:21:04;;;;;;;78.67;10.73;;;10.20;99.90;;;;;;5032642;28;20692;-74
2022/10/27 05:23:30;;;;;;;122.20;13.80;;;10.10;99.90;;;;;;5050575;28;20204;-73
2022/10/27 05:25:55;;;;;;;83.97;11.37;;;10.00;99.90;;;;;;5049318;28;20290;-74
2022/10/27 05:28:22;;;;;;;88.57;10.90;;;9.80;99.90;;;;;;5032379;28;20209;-73
2022/10/27 05:30:48;;;;;;;26.80;9.80;;;9.70;99.90;;;;;;5050461;28;20538;-73
2022/10/27 05:33:14;;;;;;;13.63;9.40;;;9.60;99.90;;;;;;5050506;28;20524;-73
2022/10/27 05:35:40;;;;;;;12.60;8.33;;;9.70;99.90;;;;;;5050289;28;20575;-74
2022/10/27 05:38:06;;;;;;;18.40;8.73;;;9.70;99.90;;;;;;5032394;28;20938;-73
2022/10/27 05:40:34;;;;;;;20.33;8.23;;;9.80;99.90;;;;;;5050109;28;20465;-74
2022/10/27 05:43:02;;;;;;;22.90;11.00;;;9.80;99.90;;;;;;5049775;28;20212;-73
2022/10/27 05:45:28;;;;;;;45.60;11.47;;;9.70;99.90;;;;;;5050053;28;20418;-73
2022/10/27 05:48:05;;;;;;;21.53;8.87;;;9.70;99.90;;;;;;5049624;28;20468;-73
2022/10/27 05:50:31;;;;;;;25.10;8.67;;;9.60;99.90;;;;;;5051493;28;20419;-74
2022/10/27 05:52:57;;;;;;;16.90;9.57;;;9.60;99.90;;;;;;5047478;28;20462;-74
2022/10/27 05:55:23;;;;;;;12.40;8.10;;;9.60;99.90;;;;;;5065716;28;20188;-75
2022/10/27 05:57:57;;;;;;;12.00;8.53;;;9.50;99.90;;;;;;5047767;28;20434;-74
2022/10/27 06:00:25;;;;;;;15.73;8.80;;;9.60;99.90;;;;;;5065099;28;20459;-73
2022/10/27 06:02:54;;;;;;;11.80;7.93;;;9.50;99.90;;;;;;5050538;28;20442;-73
2022/10/27 06:05:20;;;;;;;11.43;8.03;;;9.50;99.90;;;;;;5049836;28;20415;-73
2022/10/27 06:07:45;;;;;;;8.57;7.03;;;9.60;99.90;;;;;;5031474;28;20478;-73
2022/10/27 06:10:11;;;;;;;11.30;7.50;;;9.60;99.90;;;;;;5049131;28;20180;-74
2022/10/27 06:12:37;;;;;;;7.73;6.67;;;9.70;99.90;;;;;;5030522;28;20217;-74
2022/10/27 06:15:03;;;;;;;9.47;7.40;;;9.70;99.90;;;;;;5048638;28;20192;-74
2022/10/27 06:17:29;;;;;;;11.13;7.63;;;9.70;99.90;;;;;;5014300;28;20189;-74
2022/10/27 06:19:54;;;;;;;17.87;8.10;;;9.80;99.90;;;;;;5048648;28;20421;-73
2022/10/27 06:22:20;;;;;;;9.63;7.10;;;9.80;99.90;;;;;;5013886;28;20181;-74
2022/10/27 06:24:45;;;;;;;10.47;6.60;;;9.80;99.90;;;;;;5030791;28;20191;-74
2022/10/27 06:27:11;;;;;;;7.73;5.63;;;9.90;99.90;;;;;;5030407;28;20219;-74
2022/10/27 06:29:37;;;;;;;11.53;6.70;;;10.00;99.90;;;;;;5048768;28;21135;-74
2022/10/27 06:32:02;;;;;;;13.37;5.63;;;10.10;99.90;;;;;;5049005;28;20720;-73
2022/10/27 06:34:28;;;;;;;14.07;5.50;;;10.30;99.90;;;;;;5049083;28;20201;-73
2022/10/27 06:36:53;;;;;;;10.03;5.33;;;10.40;99.90;;;;;;5030576;28;20193;-74
2022/10/27 06:39:19;;;;;;;6.17;4.50;;;10.40;99.90;;;;;;5030918;28;20568;-74
2022/10/27 06:41:45;;;;;;;14.23;5.50;;;10.50;99.90;;;;;;5048562;28;20233;-73
2022/10/27 06:44:10;;;;;;;11.13;4.30;;;10.60;99.90;;;;;;5030766;28;20206;-73
2022/10/27 06:46:38;;;;;;;10.87;5.43;;;10.70;99.90;;;;;;5048572;28;20428;-73
2022/10/27 06:49:04;;;;;;;8.00;3.87;;;11.00;99.90;;;;;;5048304;28;20236;-73
2022/10/27 06:51:30;;;;;;;12.83;3.93;;;11.20;99.90;;;;;;5030735;28;20477;-73
2022/10/27 06:53:56;;;;;;;8.40;3.27;;;11.40;99.90;;;;;;5030424;28;20445;-73
2022/10/27 06:56:21;;;;;;;11.37;3.00;;;11.70;99.90;;;;;;5048274;28;20272;-73
2022/10/27 06:58:47;;;;;;;6.80;3.47;;;12.00;99.90;;;;;;5048305;28;20186;-73
2022/10/27 07:01:13;;;;;;;13.40;3.97;;;12.20;99.90;;;;;;5030594;28;20236;-73
2022/10/27 07:03:39;;;;;;;8.40;5.17;;;12.40;99.90;;;;;;5030236;28;20452;-73
2022/10/27 07:06:05;;;;;;;8.93;5.40;;;12.40;99.90;;;;;;5048668;28;20186;-73
2022/10/27 07:08:31;;;;;;;8.20;3.90;;;12.00;99.90;;;;;;5048882;28;20210;-73
2022/10/27 07:10:56;;;;;;;5.67;4.80;;;11.70;99.90;;;;;;5030488;28;20938;-73
2022/10/27 07:13:22;;;;;;;5.10;4.60;;;11.40;99.90;;;;;;5048317;28;20298;-73
2022/10/27 07:15:47;;;;;;;17.63;5.43;;;11.10;99.90;;;;;;5048632;28;20189;-73
2022/10/27 07:18:13;;;;;;;5.40;4.83;;;10.90;99.90;;;;;;5030705;28;20189;-73
2022/10/27 07:20:39;;;;;;;5.10;4.60;;;10.70;99.90;;;;;;5030754;28;20191;-73
2022/10/27 07:23:06;;;;;;;4.43;4.03;;;10.60;99.90;;;;;;5048451;28;20614;-73
2022/10/27 07:25:32;;;;;;;14.33;5.73;;;10.50;99.90;;;;;;5048479;28;20618;-74
2022/10/27 07:27:58;;;;;;;10.23;6.17;;;10.40;99.90;;;;;;5014014;28;21057;-74
2022/10/27 07:30:31;;;;;;;12.70;6.50;;;10.30;99.90;;;;;;5047877;28;20416;-73
2022/10/27 07:32:57;;;;;;;6.60;5.97;;;10.30;99.90;;;;;;5029961;28;20475;-73
2022/10/27 07:35:24;;;;;;;7.53;6.00;;;10.30;99.90;;;;;;5048496;28;20498;-72
2022/10/27 07:37:49;;;;;;;12.90;6.20;;;10.30;99.90;;;;;;5048550;28;20416;-73
2022/10/27 07:40:18;;;;;;;20.97;6.50;;;10.30;99.90;;;;;;5030486;28;20787;-73
2022/10/27 07:42:45;;;;;;;8.87;6.70;;;10.30;99.90;;;;;;5030623;28;20206;-72
2022/10/27 07:45:12;;;;;;;7.27;6.00;;;10.40;99.90;;;;;;5048440;28;20511;-72
2022/10/27 07:47:41;;;;;;;11.40;6.63;;;10.50;99.90;;;;;;5048296;28;20459;-73
2022/10/27 07:50:07;;;;;;;9.63;6.30;;;10.60;99.90;;;;;;5048645;28;20421;-72
2022/10/27 07:52:39;;;;;;;8.23;6.77;;;10.60;99.90;;;;;;5030386;28;20442;-73
2022/10/27 07:55:05;;;;;;;6.80;6.10;;;10.60;99.90;;;;;;5048574;28;20415;-73
2022/10/27 07:57:30;;;;;;;9.17;5.67;;;10.70;99.90;;;;;;5048599;28;20428;-73
2022/10/27 07:59:56;;;;;;;8.50;5.87;;;10.90;99.90;;;;;;5030601;28;20188;-73
2022/10/27 08:02:22;;;;;;;8.23;6.10;;;11.00;99.90;;;;;;5030711;28;20216;-72
2022/10/27 08:04:47;;;;;;;7.93;5.67;;;11.20;99.90;;;;;;5048347;28;20183;-73
2022/10/27 08:07:13;;;;;;;7.37;6.03;;;11.30;99.90;;;;;;5030048;28;20189;-73
2022/10/27 08:09:38;;;;;;;7.33;4.50;;;11.60;99.90;;;;;;5030239;28;20180;-73
2022/10/27 08:12:04;;;;;;;8.80;5.00;;;11.80;99.90;;;;;;5047960;28;20191;-73
2022/10/27 08:14:30;;;;;;;5.50;4.40;;;12.60;99.90;;;;;;5047948;28;20182;-73
2022/10/27 08:16:56;;;;;;;9.20;3.20;;;12.70;99.90;;;;;;5048071;28;20674;-73
2022/10/27 08:19:21;;;;;;;6.27;2.40;;;13.40;99.90;;;;;;5014288;28;20663;-75
2022/10/27 08:21:47;;;;;;;5.37;3.70;;;14.80;99.90;;;;;;5030446;28;20447;-73
2022/10/27 08:24:13;;;;;;;6.30;3.90;;;15.00;99.90;;;;;;5048167;28;20208;-73
2022/10/27 08:26:38;;;;;;;11.87;4.63;;;14.70;99.90;;;;;;5013532;28;20368;-73
2022/10/27 08:29:04;;;;;;;8.40;4.90;;;14.50;99.90;;;;;;5030012;28;20578;-73
2022/10/27 08:31:30;;;;;;;9.43;4.17;;;14.40;99.90;;;;;;5047723;28;20200;-74
2022/10/27 08:33:55;;;;;;;10.83;5.00;;;14.50;99.90;;;;;;5047330;28;20544;-73
2022/10/27 08:36:21;;;;;;;9.23;6.00;;;14.60;99.90;;;;;;5029376;28;20191;-73
2022/10/27 08:38:46;;;;;;;6.70;5.20;;;14.90;99.90;;;;;;5047453;28;20184;-74
2022/10/27 08:41:47;;;;;;;6.77;5.27;;;15.30;99.90;;;;;;5047422;28;20251;-74
2022/10/27 08:44:33;;;;;;;7.13;5.47;;;16.00;99.90;;;;;;4958552;28;20216;-74
2022/10/27 08:47:04;;;;;;;9.87;5.43;;;16.70;99.90;;;;;;5046948;28;20432;-72
2022/10/27 08:49:30;;;;;;;7.57;4.40;;;17.10;99.90;;;;;;5047018;28;20422;-73
2022/10/27 08:52:02;;;;;;;9.53;5.27;;;17.60;99.90;;;;;;5031514;28;20495;-74
2022/10/27 08:54:27;;;;;;;6.07;3.83;;;18.80;99.90;;;;;;5050686;28;20740;-74
2022/10/27 08:56:57;;;;;;;9.63;4.07;;;19.30;99.90;;;;;;5050699;28;20415;-74
2022/10/27 08:59:24;;;;;;;5.67;4.23;;;19.50;99.90;;;;;;5051522;28;20183;-74
2022/10/27 09:02:03;;;;;;;4.80;3.50;;;20.00;99.90;;;;;;5051653;28;20406;-73
2022/10/27 09:04:55;;;;;;;5.83;3.43;;;21.10;99.90;;;;;;5033400;28;20441;-74
2022/10/27 09:07:35;;;;;;;6.97;4.00;;;21.30;99.90;;;;;;5046725;28;20430;-74
2022/10/27 09:10:11;;;;;;;8.30;3.90;;;21.70;99.90;;;;;;5051232;28;20414;-74
2022/10/27 09:12:58;;;;;;;6.00;3.50;;;22.50;99.90;;;;;;5050976;28;20518;-73
2022/10/27 09:15:36;;;;;;;9.33;3.67;;;22.80;98.20;;;;;;5051012;28;20456;-74
2022/10/27 09:18:09;;;;;;;5.60;3.60;;;23.30;98.30;;;;;;5032956;28;20461;-74
2022/10/27 09:20:44;;;;;;;5.70;3.80;;;22.40;98.40;;;;;;5050943;28;20834;-74
2022/10/27 09:23:16;;;;;;;8.10;4.57;;;22.80;98.00;;;;;;5032841;28;20449;-73
2022/10/27 09:25:42;;;;;;;6.13;3.70;;;23.00;98.00;;;;;;5016503;28;20434;-74
2022/10/27 09:28:50;;;;;;;6.10;3.77;;;23.40;96.80;;;;;;5016034;28;20470;-74
2022/10/27 09:31:22;;;;;;;5.13;3.43;;;23.40;97.10;;;;;;4986029;28;20432;-74
2022/10/27 09:34:04;;;;;;;7.03;3.07;;;24.00;95.80;;;;;;5033310;28;20939;-74
2022/10/27 09:36:30;;;;;;;5.23;3.17;;;24.30;95.20;;;;;;5032644;28;20547;-73
2022/10/27 09:38:55;;;;;;;4.30;2.80;;;24.60;94.80;;;;;;5032347;28;20520;-74
2022/10/27 09:41:21;;;;;;;6.90;3.50;;;25.20;93.10;;;;;;5050234;28;20198;-74
2022/10/27 09:43:51;;;;;;;5.43;4.67;;;25.30;93.20;;;;;;5050427;28;20577;-74
2022/10/27 09:46:26;;;;;;;7.13;4.43;;;25.40;92.50;;;;;;5050741;28;20508;-74
2022/10/27 09:48:59;;;;;;;7.33;3.27;;;25.90;92.00;;;;;;5050154;28;20473;-75
2022/10/27 09:51:45;;;;;;;3.80;3.30;;;25.80;92.20;;;;;;5050263;28;20474;-74
2022/10/27 09:54:41;;;;;;;4.20;3.53;;;24.90;92.40;;;;;;5031870;28;20447;-73
2022/10/27 09:57:11;;;;;;;6.70;3.70;;;24.50;93.80;;;;;;5029741;28;20434;-74
2022/10/27 09:59:39;;;;;;;9.43;4.37;;;24.40;94.30;;;;;;5050032;28;20411;-74
2022/10/27 10:02:21;;;;;;;7.30;3.77;;;24.90;94.10;;;;;;5014435;28;20475;-74
2022/10/27 10:04:46;;;;;;;5.93;3.77;;;25.20;92.60;;;;;;5049901;28;20409;-74
2022/10/27 10:07:39;;;;;;;5.53;3.20;;;25.70;92.50;;;;;;5049840;28;20424;-74
2022/10/27 10:10:14;;;;;;;3.87;3.50;;;25.50;92.60;;;;;;5050067;28;20233;-74
2022/10/27 10:12:40;;;;;;;4.30;3.30;;;25.40;93.10;;;;;;5033889;28;20460;-75
2022/10/27 10:15:17;;;;;;;6.70;3.47;;;25.60;92.50;;;;;;5049811;28;20454;-75
2022/10/27 10:17:51;;;;;;;6.00;3.17;;;25.90;92.80;;;;;;5049872;28;20266;-73
2022/10/27 10:20:30;;;;;;;7.90;3.40;;;26.20;91.40;;;;;;5049663;28;21003;-74
2022/10/27 10:22:55;;;;;;;4.40;3.00;;;26.20;91.90;;;;;;5031613;28;20453;-75
2022/10/27 10:25:32;;;;;;;6.53;3.60;;;26.50;91.60;;;;;;5049452;28;20426;-74
2022/10/27 10:28:04;;;;;;;5.73;3.40;;;26.50;91.00;;;;;;5049561;28;20214;-73
2022/10/27 10:30:36;;;;;;;9.23;2.80;;;26.60;91.50;;;;;;5049417;28;20423;-73
2022/10/27 10:33:04;;;;;;;9.87;3.20;;;27.00;89.60;;;;;;5031089;28;20448;-75
2022/10/27 10:35:43;;;;;;;10.43;3.10;;;27.30;90.00;;;;;;5049271;28;20414;-75
2022/10/27 10:38:30;;;;;;;5.07;3.00;;;27.00;89.30;;;;;;5049251;28;20422;-75
2022/10/27 10:41:14;;;;;;;6.67;2.33;;;27.50;88.90;;;;;;5049182;28;20421;-75
2022/10/27 10:43:40;;;;;;;6.73;3.80;;;27.50;87.00;;;;;;5049318;28;20968;-75
2022/10/27 10:46:18;;;;;;;4.37;3.07;;;27.90;86.10;;;;;;5031208;28;20433;-75
2022/10/27 10:48:49;;;;;;;6.80;3.03;;;27.70;85.80;;;;;;5049172;28;20219;-73
2022/10/27 10:51:28;;;;;;;8.23;3.00;;;27.50;84.80;;;;;;5030878;28;20519;-75
2022/10/27 10:54:04;;;;;;;6.37;2.83;;;27.80;84.60;;;;;;5030918;28;20962;-75
2022/10/27 10:56:32;;;;;;;6.37;2.53;;;27.80;85.10;;;;;;5048915;28;20426;-74
2022/10/27 10:59:10;;;;;;;5.93;2.50;;;27.50;86.70;;;;;;5030705;28;20864;-74
2022/10/27 11:02:02;;;;;;;6.00;3.00;;;27.70;84.70;;;;;;5048909;28;20837;-75
2022/10/27 11:04:38;;;;;;;9.20;2.60;;;27.40;85.30;;;;;;5001813;28;20450;-73
2022/10/27 11:07:27;;;;;;;7.43;2.70;;;27.70;86.60;;;;;;5048654;28;20509;-74
2022/10/27 11:10:10;;;;;;;9.23;2.93;;;27.60;84.40;;;;;;5031012;28;20786;-74
2022/10/27 11:12:42;;;;;;;4.33;2.57;;;27.70;83.80;;;;;;5030348;28;20473;-74
2022/10/27 11:15:26;;;;;;;7.23;3.10;;;27.80;83.10;;;;;;5048388;28;20406;-74
2022/10/27 11:18:13;;;;;;;6.07;2.70;;;27.50;85.20;;;;;;5030537;28;20517;-74
2022/10/27 11:20:41;;;;;;;7.90;3.53;;;27.00;86.20;;;;;;5047434;28;20437;-74
2022/10/27 11:23:44;;;;;;;11.53;3.10;;;26.70;86.80;;;;;;5030735;28;20434;-74
2022/10/27 11:26:12;;;;;;;4.47;2.60;;;26.40;87.70;;;;;;5011436;28;20513;-74
2022/10/27 11:28:56;;;;;;;6.00;2.40;;;26.30;88.80;;;;;;5030137;28;20993;-74
2022/10/27 11:31:46;;;;;;;5.87;2.60;;;26.20;88.60;;;;;;5048604;28;20831;-74
2022/10/27 11:34:17;;;;;;;6.80;3.10;;;26.20;90.00;;;;;;5048311;28;20449;-74
2022/10/27 11:36:57;;;;;;;5.80;3.07;;;25.90;90.50;;;;;;5048605;28;20416;-74
2022/10/27 11:39:30;;;;;;;9.03;2.77;;;25.70;91.10;;;;;;5048171;28;20418;-74
2022/10/27 11:42:29;;;;;;;6.60;2.87;;;25.60;91.90;;;;;;5048143;28;20418;-73
2022/10/27 11:45:29;;;;;;;6.77;2.03;;;25.30;91.90;;;;;;5029216;28;20521;-74
2022/10/27 11:48:16;;;;;;;5.63;2.50;;;25.10;93.10;;;;;;5047977;28;21004;-74
2022/10/27 11:50:50;;;;;;;7.63;3.10;;;24.70;94.30;;;;;;5029940;28;20472;-74
2022/10/27 11:53:16;;;;;;;9.57;3.07;;;24.70;94.50;;;;;;5048071;28;20434;-74
2022/10/27 11:55:53;;;;;;;3.07;2.77;;;24.30;94.90;;;;;;5030044;28;20432;-74
2022/10/27 11:58:37;;;;;;;5.70;2.70;;;24.30;96.30;;;;;;5048460;28;20429;-74
2022/10/27 12:01:35;;;;;;;6.63;2.87;;;24.20;96.00;;;;;;5047950;28;20408;-74
2022/10/27 12:04:13;;;;;;;8.70;2.73;;;24.00;96.40;;;;;;5047927;28;20426;-74
2022/10/27 12:06:58;;;;;;;4.80;2.90;;;24.00;96.30;;;;;;5048342;28;20405;-73
2022/10/27 12:09:39;;;;;;;8.00;2.20;;;24.20;97.80;;;;;;5047904;28;20879;-73
2022/10/27 12:12:11;;;;;;;5.73;2.83;;;24.50;97.50;;;;;;5029860;28;20456;-74
2022/10/27 12:14:51;;;;;;;6.80;2.23;;;24.90;96.10;;;;;;5029840;28;20430;-74
2022/10/27 12:17:30;;;;;;;8.53;3.30;;;25.20;94.50;;;;;;5030167;28;20421;-74
2022/10/27 12:19:58;;;;;;;9.67;3.00;;;25.10;93.20;;;;;;5047935;28;20414;-74
2022/10/27 12:22:34;;;;;;;10.13;3.23;;;25.10;93.40;;;;;;5048036;28;20647;-75
2022/10/27 12:25:12;;;;;;;6.20;2.70;;;24.90;92.80;;;;;;5047986;28;20447;-73
2022/10/27 12:27:45;;;;;;;7.23;2.20;;;25.00;92.70;;;;;;5051621;28;20457;-73
2022/10/27 12:30:15;;;;;;;9.27;2.67;;;24.90;93.20;;;;;;5033866;28;20479;-74
2022/10/27 12:33:22;;;;;;;5.27;2.50;;;25.00;93.00;;;;;;5033519;28;20525;-74
2022/10/27 12:35:58;;;;;;;9.30;2.73;;;25.30;93.20;;;;;;5051931;28;20422;-74
2022/10/27 12:38:36;;;;;;;6.57;2.60;;;25.00;93.10;;;;;;5051617;28;20410;-74
2022/10/27 12:41:21;;;;;;;4.90;3.13;;;24.90;93.90;;;;;;5033393;28;20417;-75
2022/10/27 12:44:00;;;;;;;6.97;2.63;;;24.80;94.10;;;;;;5051445;28;20468;-75
2022/10/27 12:46:51;;;;;;;10.40;2.50;;;24.90;95.20;;;;;;5051488;28;20424;-75
2022/10/27 12:49:43;;;;;;;18.57;3.77;;;24.60;95.50;;;;;;5051367;28;20469;-75
2022/10/27 12:52:28;;;;;;;8.30;2.80;;;24.50;95.40;;;;;;5033416;28;20922;-75
2022/10/27 12:54:58;;;;;;;12.07;3.10;;;24.50;97.40;;;;;;5050694;28;20440;-76
2022/10/27 12:57:44;;;;;;;7.30;2.70;;;24.40;97.20;;;;;;5051311;28;20444;-75
2022/10/27 13:00:15;;;;;;;5.80;2.40;;;24.30;97.60;;;;;;5051395;28;20425;-75